Portada
METAR-TAF:

METAR-TAF

Aeroports :

Kunming, Xina

latitud: 25-01N, longitud: 102-41E, altitud: 1892 m

Observació

L'informe es va fer fa 27 minuts, a les 18:00 UTC
Vent calma
Temperatura 18°C
Humitat 83%
Pressió 1020 hPa
Visibilitat 10 km o més
sense núvols per sota de 1500 mi sense presència de cumulonimbus.

METAR: ZPPP 251800Z 00000MPS CAVOK 18/15 Q1020 NOSIG

Hora: 02:27 (18:27 UTC)

Pronòstic

L'informe es va fer fa 5 hores i 18 minuts, a les 13:09 UTC
Pronòstic vàlid del 25 a les 18 UTC al 26 a les 18 UTC
Vent 8 kt del Est/Nord-Est
Visibilitat 10 km o més
Escasses núvols a una alçada de 2600 ft

TAF: ZPPP 251309Z 2518/2618 06004MPS 9999 FEW026 TX26/2608Z TN16/2523Z

Observacions i pronòstics meteorològics de més de 4000 aeroports (METAR i TAF).

Les estacions disponibles són els punts grocs i vermells al mapa.

Posi el ratolí al punt desitjat per veure el nom de l'estació.

Feu clic per veure les observacions i els pronòstics meteorològics.

Per canviar el mapa: feu clic els botons verds amb una creu de color negre per apropar; al botó verd amb un guió per allunyar la imatge; o en les fletxes verdes per a mapes adjacents.


METAR-TAF: